Terminal Aerodrome Forecast
Issued by NWS

Home | Current Version | Previous Version | Text Only | Print | Product List | Glossary On
Versions: 1 2 3 4 5 6 7 8 9 10 11 12 13 14 15 16 17 18 19 20 21 22 23 24 25 26 27 28 29 30 31 32
000
FTUS45 KGJT 302341
TAFRIL
TAF
KRIL 302341Z 3100/3124 27010KT P6SM VCSH BKN100
     FM310300 16005KT P6SM SCT100 BKN150
     FM311400 VRB03KT P6SM SCT150 SCT200
     FM311900 27020G30KT P6SM FEW120 SCT150=

USA.gov is the U.S. government's official web portal to all federal, state and local government web resources and services.